Time;durP1;ratioP1;P1;durP2;ratioP2;P2;SDS_P1;SDS_P2;PMS_P1;PMS_P2;Temp;Humidity;BMP_temperature;BMP_pressure;BME280_temperature;BME280_humidity;BME280_pressure;Samples;Min_cycle;Max_cycle;Signal;HPM_P1;HPM_P2
2022/06/17 00:02:05;;;;;;;7.47;5.60;;;;;;;16.02;84.34;99347.78;1674607;86;21015;-56
2022/06/17 00:04:31;;;;;;;9.25;6.00;;;;;;;16.06;82.46;99348.77;1674763;84;21164;-52
2022/06/17 00:07:02;;;;;;;11.28;6.00;;;;;;;16.07;81.47;99345.63;1674634;86;21153;-54
2022/06/17 00:09:31;;;;;;;6.78;5.25;;;;;;;16.04;83.39;99340.05;1674274;85;21040;-57
2022/06/17 00:11:57;;;;;;;8.23;4.85;;;;;;;16.09;82.60;99346.34;1674642;85;21068;-56
2022/06/17 00:14:32;;;;;;;6.12;5.05;;;;;;;16.09;82.44;99349.00;1674711;85;21442;-55
2022/06/17 00:17:02;;;;;;;7.10;4.72;;;;;;;16.17;81.52;99348.41;1674586;85;21043;-57
2022/06/17 00:19:27;;;;;;;5.78;4.03;;;;;;;16.18;80.89;99352.27;1674500;86;21000;-55
2022/06/17 00:21:53;;;;;;;6.40;4.62;;;;;;;16.16;81.34;99356.02;1674645;85;21452;-57
2022/06/17 00:24:24;;;;;;;4.83;4.30;;;;;;;16.19;80.80;99359.73;1674589;84;20980;-56
2022/06/17 00:26:50;;;;;;;6.67;4.28;;;;;;;16.18;80.84;99368.19;1674608;86;21068;-55
2022/06/17 00:29:20;;;;;;;6.27;4.10;;;;;;;16.18;80.53;99359.39;1674929;85;21498;-57
2022/06/17 00:31:46;;;;;;;8.33;4.30;;;;;;;16.20;80.82;99362.77;1674684;84;22236;-57
2022/06/17 00:34:12;;;;;;;6.78;4.03;;;;;;;16.22;80.34;99360.34;1674616;84;21012;-55
2022/06/17 00:36:40;;;;;;;4.50;4.10;;;;;;;16.22;79.64;99363.48;1674598;84;20980;-56
2022/06/17 00:39:13;;;;;;;5.60;3.65;;;;;;;16.18;80.29;99362.05;1674612;84;20980;-58
2022/06/17 00:41:44;;;;;;;5.95;4.15;;;;;;;16.17;79.80;99365.19;1674117;85;20992;-55
2022/06/17 00:44:40;;;;;;;5.67;4.00;;;;;;;16.14;80.37;99364.09;1674663;86;21012;-58
2022/06/17 00:47:46;;;;;;;5.30;3.55;;;;;;;16.16;79.81;99364.81;1674584;85;21000;-53
2022/06/17 00:50:24;;;;;;;6.45;4.00;;;;;;;16.12;79.71;99369.51;1673995;85;20981;-58
2022/06/17 00:53:08;;;;;;;;;;;;;;;16.14;78.96;99375.19;1676923;85;21477;-57
2022/06/17 00:55:45;;;;;;;4.45;3.37;;;;;;;16.14;78.68;99380.50;1674310;84;20401;-55
2022/06/17 00:58:20;;;;;;;5.95;3.58;;;;;;;16.12;78.46;99380.12;1674733;86;20977;-53
2022/06/17 01:00:48;;;;;;;8.80;3.60;;;;;;;16.14;78.12;99385.80;1674762;86;21498;-52
2022/06/17 01:03:19;;;;;;;3.75;3.22;;;;;;;16.15;77.80;99380.84;1674791;84;20972;-57
2022/06/17 01:05:52;;;;;;;10.70;3.47;;;;;;;16.17;77.76;99385.55;1674223;84;21051;-58
2022/06/17 01:11:24;;;;;;;5.87;3.10;;;;;;;16.17;76.92;99381.56;1674746;86;20995;-54
2022/06/17 01:13:51;;;;;;;8.48;3.60;;;;;;;16.20;76.90;99393.28;1674750;85;21042;-54
2022/06/17 01:16:23;;;;;;;4.65;2.95;;;;;;;16.16;76.54;99403.28;1674809;86;21137;-54
2022/06/17 01:18:51;;;;;;;4.95;3.17;;;;;;;16.08;76.27;99399.89;1673774;85;21035;-56
2022/06/17 01:21:22;;;;;;;4.62;2.83;;;;;;;16.05;76.38;99403.26;1674737;84;21485;-55
2022/06/17 01:23:48;;;;;;;10.00;3.35;;;;;;;16.03;76.54;99405.19;1674680;85;20980;-56
2022/06/17 01:26:16;;;;;;;6.33;2.92;;;;;;;16.02;76.19;99406.97;1674698;86;21016;-57
2022/06/17 01:28:42;;;;;;;6.72;3.75;;;;;;;16.00;76.26;99408.90;1674747;86;21013;-54
2022/06/17 01:31:09;;;;;;;8.50;3.02;;;;;;;16.00;76.05;99408.90;1674651;86;21613;-55
2022/06/17 01:33:38;;;;;;;8.53;3.58;;;;;;;16.03;76.02;99405.19;1674801;85;20985;-53
2022/06/17 01:36:21;;;;;;;4.12;2.75;;;;;;;16.04;75.72;99405.53;1674744;84;20981;-54
2022/06/17 01:38:51;;;;;;;3.70;3.25;;;;;;;16.00;75.71;99404.92;1674192;85;21040;-53
2022/06/17 01:41:21;;;;;;;7.03;3.20;;;;;;;15.99;75.68;99411.20;1674706;85;21000;-58
2022/06/17 01:44:10;;;;;;;4.60;3.35;;;;;;;15.98;75.90;99418.78;1674752;85;21040;-57
2022/06/17 01:46:43;;;;;;;3.83;3.02;;;;;;;15.92;75.99;99416.13;1674679;86;21546;-53
2022/06/17 01:49:24;;;;;;;5.62;2.92;;;;;;;15.90;75.71;99411.91;1674534;85;21482;-53
2022/06/17 01:52:01;;;;;;;4.97;3.52;;;;;;;15.86;76.18;99411.29;1674119;85;21001;-56
2022/06/17 01:54:37;;;;;;;3.85;3.15;;;;;;;15.79;76.24;99415.82;1674718;84;20980;-53
2022/06/17 01:57:07;;;;;;;4.78;3.27;;;;;;;15.74;76.36;99416.18;1674682;86;21004;-55
2022/06/17 01:59:38;;;;;;;4.90;3.35;;;;;;;15.73;76.25;99418.42;1674682;86;21509;-54
2022/06/17 02:02:05;;;;;;;5.83;3.60;;;;;;;15.68;76.49;99416.13;1674611;85;21032;-57
2022/06/17 02:04:38;;;;;;;7.65;3.95;;;;;;;15.63;77.24;99417.44;1674786;86;21016;-55
2022/06/17 02:07:37;;;;;;;6.17;3.92;;;;;;;15.54;78.04;99414.49;1657452;86;21055;-57
2022/06/17 02:10:04;;;;;;;8.40;4.17;;;;;;;15.48;78.66;99418.06;1674460;85;21061;-58
2022/06/17 02:12:31;;;;;;;4.85;3.30;;;;;;;15.43;77.83;99423.72;1674699;86;21008;-54
2022/06/17 02:14:57;;;;;;;4.62;3.42;;;;;;;15.40;79.16;99431.88;1674742;84;21494;-55
2022/06/17 02:17:30;;;;;;;8.13;3.67;;;;;;;15.41;78.51;99441.54;1674709;86;21012;-57
2022/06/17 02:19:56;;;;;;;5.05;3.65;;;;;;;15.41;78.45;99440.67;1674822;85;21009;-53
2022/06/17 02:22:25;;;;;;;9.33;4.00;;;;;;;15.38;78.86;99443.56;1674692;84;21060;-56
2022/06/17 02:24:55;;;;;;;5.58;3.45;;;;;;;15.35;80.06;99446.81;1674694;85;21016;-53
2022/06/17 02:27:22;;;;;;;5.90;3.72;;;;;;;15.34;80.31;99450.89;1674609;84;21012;-58
2022/06/17 02:29:49;;;;;;;5.53;3.90;;;;;;;15.36;80.53;99458.25;1674967;85;21486;-56
2022/06/17 02:32:16;;;;;;;8.30;4.17;;;;;;;15.35;81.05;99453.89;1674892;86;20992;-53
2022/06/17 02:34:50;;;;;;;8.48;4.20;;;;;;;15.35;80.93;99457.41;1674786;85;21015;-52
2022/06/17 02:37:18;;;;;;;5.72;3.95;;;;;;;15.39;80.72;99467.31;1674667;86;20968;-58
2022/06/17 02:39:47;;;;;;;;;;;;;;;15.42;79.75;99469.72;1677243;85;20996;-57
2022/06/17 02:44:00;;;;;;;8.53;4.15;;;;;;;15.40;83.04;99473.45;1792711;78;24109;-54
2022/06/17 02:46:31;;;;;;;5.30;3.52;;;;;;;15.34;80.51;99482.69;1764495;80;21041;-54
2022/06/17 02:49:04;;;;;;;9.23;3.90;;;;;;;15.21;81.80;99480.53;1775898;80;21026;-54
2022/06/17 02:51:35;;;;;;;10.68;4.28;;;;;;;15.17;81.35;99483.88;1782442;80;21049;-58
2022/06/17 02:54:03;;;;;;;8.38;4.12;;;;;;;15.10;82.07;99482.65;1764786;80;21010;-51
2022/06/17 02:56:32;;;;;;;8.23;4.75;;;;;;;15.11;80.38;99489.63;1790046;80;21003;-55
2022/06/17 02:59:41;;;;;;;11.50;4.28;;;;;;;15.07;80.76;99478.39;1774543;80;21014;-56
2022/06/17 03:02:27;;;;;;;13.20;4.12;;;;;;;15.00;82.43;99484.24;1779643;80;21014;-55
2022/06/17 03:04:53;;;;;;;4.80;3.98;;;;;;;15.01;81.97;99487.24;1796667;80;21668;-57
2022/06/17 03:07:22;;;;;;;10.48;4.05;;;;;;;14.90;81.94;99489.34;1768135;80;21014;-55
2022/06/17 03:09:48;;;;;;;8.55;3.60;;;;;;;14.89;81.85;99492.94;1769168;80;21040;-54
2022/06/17 03:12:25;;;;;;;9.77;4.23;;;;;;;14.82;81.14;99491.67;1788156;80;21057;-58
2022/06/17 03:15:09;;;;;;;14.93;5.00;;;;;;;14.77;81.89;99493.30;1768983;80;21010;-56
2022/06/17 03:17:40;;;;;;;5.30;3.75;;;;;;;14.72;82.28;99497.61;1794805;80;21479;-55
2022/06/17 03:20:12;;;;;;;8.20;4.20;;;;;;;14.70;81.87;99494.71;1786022;80;21045;-57
2022/06/17 03:22:38;;;;;;;8.63;4.12;;;;;;;14.66;81.95;99499.82;1795492;80;21511;-52
2022/06/17 03:25:18;;;;;;;7.47;4.37;;;;;;;14.62;82.34;99505.80;1796077;80;20983;-57
2022/06/17 03:27:51;;;;;;;7.37;4.28;;;;;;;14.58;82.83;99504.33;1774502;80;21026;-54
2022/06/17 03:30:31;;;;;;;10.78;4.70;;;;;;;14.58;82.18;99504.33;1772691;80;20998;-54
2022/06/17 03:33:02;;;;;;;9.90;4.40;;;;;;;14.58;83.11;99513.10;1769131;80;21541;-56
2022/06/17 03:35:31;;;;;;;8.03;4.50;;;;;;;14.57;83.12;99512.75;1768351;80;21504;-55
2022/06/17 03:38:46;;;;;;;9.00;4.75;;;;;;;14.58;83.44;99521.05;1775483;80;21015;-53
2022/06/17 03:41:30;;;;;;;6.55;4.70;;;;;;;14.65;82.88;99523.29;1789180;80;21190;-56
2022/06/17 03:44:07;;;;;;;12.40;4.55;;;;;;;14.58;82.46;99522.36;1796576;80;21495;-54
2022/06/17 03:46:55;;;;;;;13.48;4.85;;;;;;;14.61;82.92;99525.30;1776486;80;21013;-57
2022/06/17 03:49:26;;;;;;;12.33;5.30;;;;;;;14.55;83.15;99519.92;1776046;80;21019;-56
2022/06/17 03:51:58;;;;;;;8.73;5.40;;;;;;;14.51;82.96;99522.86;1795343;80;21539;-55
2022/06/17 03:54:24;;;;;;;7.80;4.75;;;;;;;14.44;83.47;99517.12;1785300;80;21504;-56
2022/06/17 03:56:53;;;;;;;7.72;4.72;;;;;;;14.46;83.45;99518.35;1763748;80;21538;-54
2022/06/17 03:59:23;;;;;;;7.87;4.85;;;;;;;14.47;83.96;99519.58;1783630;80;21061;-58
2022/06/17 04:02:00;;;;;;;8.88;4.72;;;;;;;14.52;83.14;99522.77;1768403;80;20966;-56
2022/06/17 04:04:31;;;;;;;8.58;4.83;;;;;;;14.52;83.42;99529.86;1796335;80;21142;-52
2022/06/17 04:06:58;;;;;;;10.95;4.97;;;;;;;14.57;82.65;99529.05;1772946;80;21487;-56
2022/06/17 04:09:30;;;;;;;9.15;4.37;;;;;;;14.55;83.43;99531.83;1780129;80;21505;-52
2022/06/17 04:12:14;;;;;;;11.00;4.50;;;;;;;14.58;83.34;99538.73;1772071;80;21897;-56
2022/06/17 04:15:00;;;;;;;9.88;5.05;;;;;;;14.61;83.21;99542.50;1779377;80;21015;-53
2022/06/17 04:17:34;;;;;;;7.50;4.95;;;;;;;14.60;83.22;99540.80;1779291;80;21019;-59
2022/06/17 04:20:29;;;;;;;12.70;4.80;;;;;;;14.63;82.08;99541.08;1795898;80;21025;-56
2022/06/17 04:23:11;;;;;;;10.13;4.92;;;;;;;14.65;82.04;99540.01;1790282;80;21058;-53
2022/06/17 04:25:52;;;;;;;8.08;5.05;;;;;;;14.57;83.16;99547.16;1778978;80;20987;-54
2022/06/17 04:28:29;;;;;;;8.65;5.05;;;;;;;14.57;83.98;99544.50;1771126;80;21019;-54
2022/06/17 04:30:59;;;;;;;7.17;4.50;;;;;;;14.69;82.65;99552.56;1773220;80;20971;-56
2022/06/17 04:34:05;;;;;;;13.65;5.20;;;;;;;14.70;82.57;99548.48;1778941;80;21014;-57
2022/06/17 04:36:54;;;;;;;8.95;5.25;;;;;;;14.72;82.17;99549.23;1778981;80;21010;-54
2022/06/17 04:39:31;;;;;;;11.33;5.17;;;;;;;14.71;82.32;99551.97;1768542;80;21057;-57
2022/06/17 04:42:02;;;;;;;10.90;4.72;;;;;;;14.74;82.25;99551.77;1763954;80;21006;-59
2022/06/17 04:44:28;;;;;;;7.08;4.33;;;;;;;14.79;82.31;99556.28;1781588;80;21445;-58
2022/06/17 04:47:05;;;;;;;7.25;4.65;;;;;;;14.86;81.32;99562.85;1778881;80;21048;-56
2022/06/17 04:49:35;;;;;;;10.55;4.33;;;;;;;14.88;81.41;99566.23;1797234;80;20990;-56
2022/06/17 04:52:22;;;;;;;8.78;4.30;;;;;;;14.89;82.16;99571.89;1791958;80;21014;-57
2022/06/17 04:54:49;;;;;;;7.53;4.17;;;;;;;14.90;81.45;99565.66;1797229;80;21019;-54
2022/06/17 04:57:15;;;;;;;9.97;4.30;;;;;;;14.91;81.62;99571.78;1773313;80;21873;-57
2022/06/17 04:59:44;;;;;;;8.88;4.75;;;;;;;14.98;80.81;99576.55;1780611;80;21014;-59
2022/06/17 05:02:20;;;;;;;10.88;4.55;;;;;;;15.01;81.38;99566.69;1789815;80;21006;-53
2022/06/17 05:04:50;;;;;;;6.23;4.33;;;;;;;15.05;80.89;99570.84;1788749;80;21527;-54
2022/06/17 05:07:17;;;;;;;8.50;4.75;;;;;;;15.09;81.07;99573.16;1793723;80;21554;-56
2022/06/17 05:09:54;;;;;;;10.58;4.42;;;;;;;15.10;80.43;99582.81;1779575;80;21057;-50
2022/06/17 05:12:31;;;;;;;7.87;4.00;;;;;;;15.16;80.23;99582.86;1796941;80;21488;-51
2022/06/17 05:15:14;;;;;;;6.55;4.17;;;;;;;15.21;79.67;99582.52;1790887;80;20982;-50
2022/06/17 05:17:40;;;;;;;6.92;4.30;;;;;;;15.15;80.09;99591.30;1773602;80;21618;-53
2022/06/17 05:20:10;;;;;;;10.48;3.70;;;;;;;15.19;79.77;99587.95;1780420;80;21579;-56
2022/06/17 05:22:45;;;;;;;7.25;3.87;;;;;;;15.19;79.67;99590.60;1795840;80;21027;-57
2022/06/17 05:25:18;;;;;;;7.53;4.58;;;;;;;15.24;79.27;99594.23;1795517;80;20995;-54
2022/06/17 05:27:44;;;;;;;6.83;4.47;;;;;;;15.29;79.05;99598.26;1796169;80;21044;-55
2022/06/17 05:30:11;;;;;;;7.87;4.53;;;;;;;15.31;78.95;99602.97;1789937;80;21006;-55
2022/06/17 05:32:39;;;;;;;8.33;4.85;;;;;;;15.31;79.34;99605.62;1777622;80;21058;-56
2022/06/17 05:35:06;;;;;;;7.95;4.70;;;;;;;15.40;79.08;99607.27;1744127;80;21062;-55
2022/06/17 05:37:32;;;;;;;9.28;5.10;;;;;;;15.45;79.03;99611.28;1775596;80;21515;-56
2022/06/17 05:39:58;;;;;;;8.78;4.55;;;;;;;15.55;78.99;99607.50;1792208;80;21042;-57
2022/06/17 05:42:27;;;;;;;11.68;4.00;;;;;;;15.59;78.88;99610.78;1790566;80;21002;-54
2022/06/17 05:44:51;;;;;;;6.90;4.35;;;;;;;15.65;78.36;99609.88;1783938;80;21022;-57
2022/06/17 05:47:17;;;;;;;6.85;4.30;;;;;;;15.76;78.12;99609.63;1786661;80;21033;-58
2022/06/17 05:49:43;;;;;;;7.42;4.30;;;;;;;15.62;78.35;99615.38;1790267;80;21011;-57
2022/06/17 05:52:11;;;;;;;8.93;3.98;;;;;;;15.64;78.09;99620.58;1768284;80;21076;-57
2022/06/17 05:54:37;;;;;;;9.33;4.53;;;;;;;15.60;78.33;99616.46;1785241;80;21491;-57
2022/06/17 05:57:03;;;;;;;8.30;4.60;;;;;;;15.65;78.14;99615.66;1787957;80;21006;-55
2022/06/17 05:59:29;;;;;;;11.12;4.53;;;;;;;15.65;77.77;99611.69;1774094;80;21503;-57
2022/06/17 06:01:55;;;;;;;6.50;4.20;;;;;;;15.67;77.61;99613.26;1774485;80;21006;-54
2022/06/17 06:04:21;;;;;;;7.97;4.20;;;;;;;15.70;77.82;99614.86;1795997;80;21011;-55
2022/06/17 06:06:48;;;;;;;8.70;4.50;;;;;;;15.73;77.29;99611.52;1796988;80;21452;-57
2022/06/17 06:09:14;;;;;;;7.25;4.37;;;;;;;15.72;77.22;99615.11;1796897;80;21483;-54
2022/06/17 06:11:40;;;;;;;8.25;3.65;;;;;;;15.65;77.37;99611.20;1784985;80;21030;-57
2022/06/17 06:14:05;;;;;;;9.70;4.25;;;;;;;15.71;76.85;99610.75;1778177;80;21010;-58
2022/06/17 06:16:31;;;;;;;8.55;3.80;;;;;;;15.74;76.87;99611.90;1778696;80;21006;-58
2022/06/17 06:18:57;;;;;;;5.83;4.10;;;;;;;15.72;76.29;99611.13;1768515;80;20994;-57
2022/06/17 06:21:23;;;;;;;6.08;4.12;;;;;;;15.70;76.09;99609.07;1770564;80;21384;-55
2022/06/17 06:23:49;;;;;;;11.57;3.98;;;;;;;15.73;76.22;99611.52;1794543;80;20991;-54
2022/06/17 06:26:18;;;;;;;8.38;3.05;;;;;;;15.78;76.00;99611.20;1778198;80;21769;-54
2022/06/17 06:28:45;;;;;;;5.12;3.08;;;;;;;15.84;75.35;99614.72;1785227;80;21015;-60
2022/06/17 06:31:27;;;;;;;14.38;3.30;;;;;;;15.90;75.29;99614.30;1764609;80;21046;-57
2022/06/17 06:33:54;;;;;;;6.03;3.22;;;;;;;15.94;75.10;99612.27;1766207;80;20994;-58
2022/06/17 06:36:21;;;;;;;11.03;3.10;;;;;;;15.95;74.94;99607.31;1783484;80;21037;-58
2022/06/17 06:38:47;;;;;;;4.27;3.10;;;;;;;16.02;74.73;99607.24;1770209;80;21004;-57
2022/06/17 06:41:14;;;;;;;8.47;2.83;;;;;;;16.05;74.45;99608.35;1767417;80;21539;-54
2022/06/17 06:43:41;;;;;;;10.03;3.07;;;;;;;16.08;74.35;99608.14;1775014;80;21080;-58
2022/06/17 06:46:14;;;;;;;3.62;2.50;;;;;;;16.16;74.18;99608.90;1785445;80;21018;-53
2022/06/17 06:48:41;;;;;;;3.80;2.22;;;;;;;16.19;72.90;99607.81;1780123;80;21570;-53
2022/06/17 06:51:07;;;;;;;7.05;2.40;;;;;;;16.27;72.97;99610.77;1768410;80;21045;-53
2022/06/17 06:53:33;;;;;;;5.58;2.55;;;;;;;16.29;72.47;99616.80;1785138;80;21030;-53
2022/06/17 06:55:59;;;;;;;9.83;2.70;;;;;;;16.33;72.07;99620.08;1767057;80;21026;-59
2022/06/17 06:58:27;;;;;;;8.75;2.33;;;;;;;16.32;71.27;99619.23;1762607;80;21053;-51
2022/06/17 07:00:56;;;;;;;4.00;1.87;;;;;;;16.37;71.26;99612.24;1778906;80;21179;-55
2022/06/17 07:03:24;;;;;;;4.78;2.25;;;;;;;16.44;71.18;99628.08;1763742;80;21138;-55
2022/06/17 07:06:00;;;;;;;3.45;1.75;;;;;;;16.44;70.68;99615.64;1768444;80;21023;-54
2022/06/17 07:08:28;;;;;;;3.45;1.92;;;;;;;16.45;70.14;99617.35;1785720;80;21019;-52
2022/06/17 07:10:59;;;;;;;2.98;2.10;;;;;;;16.45;69.61;99617.35;1787718;80;21119;-56
2022/06/17 07:13:25;;;;;;;5.17;1.60;;;;;;;16.57;69.54;99625.36;1774113;80;21041;-58
2022/06/17 07:15:53;;;;;;;2.37;1.75;;;;;;;16.65;69.17;99609.22;1763563;80;21133;-56
2022/06/17 07:18:27;;;;;;;2.80;1.35;;;;;;;16.65;68.54;99624.31;1763776;80;21042;-57
2022/06/17 07:20:57;;;;;;;2.67;1.42;;;;;;;16.69;67.25;99620.45;1780873;80;21068;-55
2022/06/17 07:23:30;;;;;;;3.12;1.30;;;;;;;16.66;65.46;99625.53;1783732;80;21050;-56
2022/06/17 07:25:59;;;;;;;1.70;1.20;;;;;;;16.63;64.08;99621.77;1773752;80;21629;-53
2022/06/17 07:28:26;;;;;;;2.52;0.95;;;;;;;16.65;64.63;99625.64;1774706;80;21045;-57
2022/06/17 07:30:55;;;;;;;1.37;1.05;;;;;;;16.74;63.39;99628.93;1784535;80;21014;-53
2022/06/17 07:33:25;;;;;;;6.95;0.95;;;;;;;16.79;63.00;99625.45;1794824;80;21014;-56
2022/06/17 07:35:55;;;;;;;2.87;0.90;;;;;;;16.80;61.70;99615.66;1781272;80;21014;-54
2022/06/17 07:41:12;;;;;;;1.80;0.98;;;;;;;16.92;60.47;99625.39;1765630;80;21001;-57
2022/06/17 07:43:39;;;;;;;0.68;0.55;;;;;;;16.95;58.53;99620.31;1793373;80;21015;-55
2022/06/17 07:46:05;;;;;;;1.25;0.65;;;;;;;16.98;58.99;99626.73;1788571;80;21023;-55
2022/06/17 07:48:32;;;;;;;1.27;0.88;;;;;;;17.02;56.63;99626.36;1796245;80;21006;-58
2022/06/17 07:50:58;;;;;;;4.28;0.70;;;;;;;17.07;57.87;99623.36;1789513;80;21030;-54
2022/06/17 07:53:30;;;;;;;2.95;1.12;;;;;;;17.12;57.05;99634.48;1797794;80;21539;-56
2022/06/17 07:55:59;;;;;;;1.35;0.88;;;;;;;17.24;58.42;99632.19;1769159;80;21045;-55
2022/06/17 07:58:25;;;;;;;3.22;0.80;;;;;;;17.30;58.52;99634.02;1789155;80;21002;-55
2022/06/17 08:00:51;;;;;;;2.20;0.80;;;;;;;17.33;55.42;99631.12;1794532;80;21066;-52
2022/06/17 08:03:18;;;;;;;2.85;0.78;;;;;;;17.44;57.56;99638.64;1796919;80;21046;-54
2022/06/17 08:05:49;;;;;;;2.65;1.12;;;;;;;17.49;57.44;99644.07;1775388;80;21005;-55
2022/06/17 08:08:21;;;;;;;3.22;0.65;;;;;;;17.55;56.70;99640.42;1794015;80;21193;-58
2022/06/17 08:10:45;;;;;;;0.88;0.70;;;;;;;17.61;56.96;99640.45;1794196;80;21164;-58
2022/06/17 08:13:10;;;;;;;3.42;0.68;;;;;;;17.71;56.41;99648.05;1793818;80;21046;-58
2022/06/17 08:15:36;;;;;;;3.37;0.75;;;;;;;17.73;55.38;99642.11;1779811;80;21108;-56
2022/06/17 08:18:03;;;;;;;1.00;0.80;;;;;;;17.87;56.81;99646.38;1775876;80;21025;-57
2022/06/17 08:20:34;;;;;;;1.52;0.78;;;;;;;17.92;55.78;99634.89;1766793;80;21013;-55
2022/06/17 08:23:02;;;;;;;3.67;0.85;;;;;;;17.98;55.66;99639.70;1763841;80;21498;-58
2022/06/17 08:25:29;;;;;;;1.67;0.93;;;;;;;18.04;54.95;99638.36;1783245;80;21018;-58
2022/06/17 08:27:57;;;;;;;6.55;1.10;;;;;;;18.21;55.52;99652.98;1794924;80;21075;-58
2022/06/17 08:30:28;;;;;;;1.00;0.70;;;;;;;18.37;56.03;99649.89;1797927;80;21065;-55
2022/06/17 08:32:55;;;;;;;2.80;0.98;;;;;;;18.59;55.45;99647.16;1789880;80;20986;-57
2022/06/17 08:35:26;;;;;;;;;;;;;;;18.69;54.86;99653.89;1766318;80;21037;-57
2022/06/17 08:38:03;;;;;;;2.30;0.82;;;;;;;18.82;54.02;99656.89;1766734;80;20178;-56
2022/06/17 08:40:49;;;;;;;5.50;0.90;;;;;;;18.87;52.47;99660.03;1778821;80;21495;-52
2022/06/17 08:43:32;;;;;;;3.55;0.78;;;;;;;19.21;54.14;99655.34;1784878;80;21027;-57
2022/06/17 08:46:24;;;;;;;6.28;0.80;;;;;;;19.55;53.94;99669.75;1791270;80;21019;-55
2022/06/17 08:49:24;;;;;;;7.42;0.90;;;;;;;19.54;53.47;99664.08;1759798;81;21024;-58
2022/06/17 08:52:22;;;;;;;8.63;1.10;;;;;;;19.49;53.80;99671.13;1750656;81;21022;-59
2022/06/17 08:54:59;;;;;;;3.65;0.80;;;;;;;19.65;52.48;99675.16;1758660;81;21011;-57
2022/06/17 08:57:34;;;;;;;2.37;1.10;;;;;;;19.84;52.58;99673.91;1755993;81;21010;-55
2022/06/17 09:00:19;;;;;;;1.95;0.65;;;;;;;19.89;52.08;99675.69;1747774;81;21026;-56
2022/06/17 09:03:08;;;;;;;2.65;0.60;;;;;;;19.90;52.13;99673.39;1768865;80;21026;-56
2022/06/17 09:06:02;;;;;;;1.30;0.70;;;;;;;20.20;51.74;99682.31;1744936;80;21083;-56
2022/06/17 09:09:01;;;;;;;0.78;0.60;;;;;;;20.40;50.51;99679.69;1752829;80;21511;-57
2022/06/17 09:11:49;;;;;;;2.67;0.60;;;;;;;20.79;50.13;99667.70;1741254;80;21062;-56
2022/06/17 09:14:41;;;;;;;0.80;0.80;;;;;;;20.98;49.85;99670.87;1746126;81;21067;-60
2022/06/17 09:17:19;;;;;;;2.60;1.00;;;;;;;20.76;49.37;99676.02;1702855;83;21029;-59
2022/06/17 09:19:47;;;;;;;3.90;0.80;;;;;;;20.57;49.27;99676.31;1719583;82;21126;-58
2022/06/17 09:22:21;;;;;;;4.00;1.00;;;;;;;20.82;48.96;99666.09;1728953;82;21035;-59
2022/06/17 09:24:47;;;;;;;2.60;0.72;;;;;;;20.99;49.44;99668.06;1728484;81;21031;-57
2022/06/17 09:27:21;;;;;;;1.95;1.00;;;;;;;20.82;48.37;99678.95;1737311;82;21542;-59
2022/06/17 09:29:59;;;;;;;2.17;0.60;;;;;;;20.66;49.51;99686.19;1726263;81;21042;-56
2022/06/17 09:32:30;;;;;;;3.98;1.20;;;;;;;20.97;49.32;99689.22;1723988;82;21046;-59
2022/06/17 09:35:07;;;;;;;2.67;1.30;;;;;;;21.43;48.87;99684.94;1741630;82;21073;-58
2022/06/17 09:38:05;;;;;;;2.87;0.85;;;;;;;21.76;47.58;99685.42;1787114;79;20998;-56
2022/06/17 09:40:38;;;;;;;2.85;1.00;;;;;;;22.37;46.59;99689.34;1790288;79;21230;-56
2022/06/17 09:43:15;;;;;;;6.60;1.30;;;;;;;23.00;47.31;99685.23;1791419;79;21165;-57
2022/06/17 09:45:56;;;;;;;0.62;0.60;;;;;;;23.18;44.95;99695.97;1786645;79;21210;-54
2022/06/17 09:48:27;;;;;;;3.00;1.07;;;;;;;22.94;45.34;99693.91;1787825;79;21017;-55
2022/06/17 09:50:58;;;;;;;3.27;0.85;;;;;;;22.62;45.86;99697.13;1796598;79;21019;-56
2022/06/17 09:53:33;;;;;;;3.30;1.20;;;;;;;23.05;46.00;99686.63;1784513;79;21017;-54
2022/06/17 09:56:19;;;;;;;2.22;0.70;;;;;;;23.16;45.60;99699.31;1790544;79;22337;-55
2022/06/17 09:58:50;;;;;;;8.70;1.10;;;;;;;23.73;43.53;99702.02;1788457;79;21558;-53
2022/06/17 10:01:16;;;;;;;6.17;1.27;;;;;;;24.47;44.61;99699.66;1789817;79;21480;-56
2022/06/17 10:03:42;;;;;;;2.08;1.00;;;;;;;25.05;40.34;99698.73;1795322;79;21017;-56
2022/06/17 10:06:45;;;;;;;5.60;1.20;;;;;;;25.77;41.97;99706.03;1769639;79;21554;-57
2022/06/17 10:09:36;;;;;;;1.92;1.05;;;;;;;25.98;38.91;99695.23;1734773;81;21045;-57
2022/06/17 10:12:34;;;;;;;2.60;1.12;;;;;;;26.18;38.35;99690.26;1737440;81;21053;-56
2022/06/17 10:15:37;;;;;;;4.40;1.32;;;;;;;26.42;37.86;99694.67;1751328;81;21061;-54
2022/06/17 10:18:32;;;;;;;2.15;0.93;;;;;;;26.27;38.11;99683.81;1771591;79;21004;-54
2022/06/17 10:21:37;;;;;;;2.13;0.87;;;;;;;26.54;38.75;99687.86;1791104;79;20986;-55
2022/06/17 10:24:08;;;;;;;3.60;1.07;;;;;;;26.06;37.80;99687.10;1789356;79;21095;-52
2022/06/17 10:27:12;;;;;;;1.45;0.70;;;;;;;25.34;37.36;99692.50;1792756;79;21005;-53
2022/06/17 10:30:00;;;;;;;3.92;0.70;;;;;;;25.59;36.44;99684.70;1791171;79;20982;-55
2022/06/17 10:32:28;;;;;;;3.72;0.93;;;;;;;25.89;36.15;99698.91;1791018;79;21002;-56
2022/06/17 10:35:01;;;;;;;2.55;1.07;;;;;;;26.30;35.62;99694.22;1787586;79;21073;-53
2022/06/17 10:37:29;;;;;;;1.60;0.62;;;;;;;27.12;36.03;99684.72;1790741;79;21026;-56
2022/06/17 10:39:56;;;;;;;7.15;0.75;;;;;;;27.12;34.96;99690.98;1792947;79;21076;-55
2022/06/17 10:42:25;;;;;;;5.15;1.20;;;;;;;26.86;35.57;99687.30;1781401;79;21049;-58
2022/06/17 10:44:56;;;;;;;2.10;1.15;;;;;;;26.22;36.50;99689.72;1791755;79;21049;-54
2022/06/17 10:47:51;;;;;;;3.45;1.10;;;;;;;25.86;36.88;99688.83;1783082;79;21577;-56
2022/06/17 10:50:24;;;;;;;6.65;1.20;;;;;;;25.27;37.17;99690.50;1783148;79;21052;-55
2022/06/17 10:52:58;;;;;;;3.47;1.25;;;;;;;24.59;38.42;99696.17;1791473;79;21048;-58
2022/06/17 10:55:29;;;;;;;4.40;2.00;;;;;;;24.39;39.01;99703.66;1778787;79;20989;-57
2022/06/17 10:58:21;;;;;;;7.65;1.15;;;;;;;24.00;39.07;99706.38;1794661;79;21050;-54
2022/06/17 11:01:11;;;;;;;6.62;1.20;;;;;;;23.52;38.61;99695.69;1779167;79;20990;-56
2022/06/17 11:03:39;;;;;;;3.65;1.17;;;;;;;24.29;38.42;99697.09;1790791;79;21061;-54
2022/06/17 11:06:13;;;;;;;6.92;1.27;;;;;;;25.13;38.74;99683.08;1801547;79;21011;-53
2022/06/17 11:08:50;;;;;;;2.85;1.17;;;;;;;24.70;38.60;99693.16;1780737;79;21053;-57
2022/06/17 11:14:06;;;;;;;3.75;1.35;;;;;;;23.75;39.58;99690.11;1748278;81;21035;-55
2022/06/17 11:16:37;;;;;;;3.87;1.17;;;;;;;23.21;41.11;99694.80;1759008;81;21024;-55
2022/06/17 11:19:08;;;;;;;1.87;0.70;;;;;;;23.80;40.98;99696.90;1755697;81;21629;-55
2022/06/17 11:21:40;;;;;;;1.27;1.07;;;;;;;24.83;39.31;99693.52;1750725;81;21605;-56
2022/06/17 11:24:07;;;;;;;1.55;0.70;;;;;;;25.26;36.97;99695.53;1761110;80;20985;-58
2022/06/17 11:26:35;;;;;;;1.40;1.05;;;;;;;25.58;35.20;99693.81;1747829;81;21068;-55
2022/06/17 11:29:06;;;;;;;3.45;0.90;;;;;;;25.59;36.06;99688.74;1754475;81;21025;-57
2022/06/17 11:31:39;;;;;;;3.95;1.00;;;;;;;25.42;36.63;99693.84;1753913;81;21044;-53
2022/06/17 11:34:17;;;;;;;2.35;1.00;;;;;;;25.34;35.55;99697.88;1742704;81;21032;-56
2022/06/17 11:37:10;;;;;;;1.20;1.10;;;;;;;24.56;36.12;99696.48;1754035;81;20974;-55
2022/06/17 11:39:37;;;;;;;6.65;1.12;;;;;;;24.26;37.04;99692.03;1750772;81;21044;-56
2022/06/17 11:42:24;;;;;;;15.63;3.30;;;;;;;23.65;37.97;99685.38;1767296;81;21078;-53
2022/06/17 11:45:01;;;;;;;7.05;1.70;;;;;;;23.51;38.33;99682.77;1758938;81;21616;-57
2022/06/17 11:47:31;;;;;;;1.82;1.05;;;;;;;23.16;39.36;99691.77;1761233;81;21025;-57
2022/06/17 11:50:18;;;;;;;3.30;1.30;;;;;;;22.95;40.10;99695.58;1725597;81;21010;-55
2022/06/17 11:52:44;;;;;;;2.30;1.00;;;;;;;22.99;41.12;99699.66;1759315;81;21029;-52
2022/06/17 11:55:12;;;;;;;2.35;1.17;;;;;;;23.74;40.64;99692.47;1759533;81;21016;-56
2022/06/17 11:57:41;;;;;;;4.67;1.12;;;;;;;24.58;39.99;99694.50;1753256;81;21016;-55
2022/06/17 12:00:24;;;;;;;4.37;1.10;;;;;;;25.42;38.73;99691.16;1750731;81;21069;-53
2022/06/17 12:03:02;;;;;;;2.70;0.98;;;;;;;26.05;38.47;99680.05;1732230;81;21012;-54
2022/06/17 12:05:31;;;;;;;2.85;1.07;;;;;;;26.71;35.88;99680.52;1753470;81;21530;-56
2022/06/17 12:08:18;;;;;;;3.40;0.98;;;;;;;26.64;35.76;99683.59;1766384;81;21004;-58
2022/06/17 12:11:04;;;;;;;7.97;1.12;;;;;;;26.95;35.83;99696.18;1762077;81;21077;-53
2022/06/17 12:13:45;;;;;;;3.12;0.95;;;;;;;26.99;35.39;99692.92;1755686;81;21012;-56
2022/06/17 12:16:39;;;;;;;1.70;1.00;;;;;;;27.05;35.12;99692.73;1767464;81;21067;-55